sensor_id;sensor_type;location;lat;lon;timestamp;P1;durP1;ratioP1;P2;durP2;ratioP2
74941;SDS011;63506;49.346;8.798;2023-08-17T00:00:37;7.10;;;2.67;;
74941;SDS011;63506;49.346;8.798;2023-08-17T00:03:04;10.15;;;2.33;;
74941;SDS011;63506;49.346;8.798;2023-08-17T00:05:31;3.80;;;2.35;;
74941;SDS011;63506;49.346;8.798;2023-08-17T00:07:59;3.80;;;2.25;;
74941;SDS011;63506;49.346;8.798;2023-08-17T00:10:27;3.35;;;1.80;;
74941;SDS011;63506;49.346;8.798;2023-08-17T00:12:57;6.88;;;2.28;;
74941;SDS011;63506;49.346;8.798;2023-08-17T00:15:25;4.30;;;2.35;;
74941;SDS011;63506;49.346;8.798;2023-08-17T00:17:53;6.85;;;2.38;;
74941;SDS011;63506;49.346;8.798;2023-08-17T00:20:21;4.35;;;2.45;;
74941;SDS011;63506;49.346;8.798;2023-08-17T00:22:50;5.18;;;2.50;;
74941;SDS011;63506;49.346;8.798;2023-08-17T00:25:20;2.90;;;2.00;;
74941;SDS011;63506;49.346;8.798;2023-08-17T00:27:49;2.28;;;1.70;;
74941;SDS011;63506;49.346;8.798;2023-08-17T00:30:17;3.63;;;1.48;;
74941;SDS011;63506;49.346;8.798;2023-08-17T00:32:44;5.50;;;2.00;;
74941;SDS011;63506;49.346;8.798;2023-08-17T00:35:13;7.72;;;1.85;;
74941;SDS011;63506;49.346;8.798;2023-08-17T00:37:40;1.85;;;1.48;;
74941;SDS011;63506;49.346;8.798;2023-08-17T00:40:08;3.00;;;1.55;;
74941;SDS011;63506;49.346;8.798;2023-08-17T00:42:36;4.63;;;1.98;;
74941;SDS011;63506;49.346;8.798;2023-08-17T00:45:04;4.72;;;1.67;;
74941;SDS011;63506;49.346;8.798;2023-08-17T00:47:32;1.85;;;1.27;;
74941;SDS011;63506;49.346;8.798;2023-08-17T00:49:59;2.08;;;1.55;;
74941;SDS011;63506;49.346;8.798;2023-08-17T00:52:31;2.67;;;1.63;;
74941;SDS011;63506;49.346;8.798;2023-08-17T00:54:59;3.83;;;2.13;;
74941;SDS011;63506;49.346;8.798;2023-08-17T00:57:30;3.67;;;1.42;;
74941;SDS011;63506;49.346;8.798;2023-08-17T00:59:58;2.65;;;1.75;;
74941;SDS011;63506;49.346;8.798;2023-08-17T01:02:26;3.13;;;1.88;;
74941;SDS011;63506;49.346;8.798;2023-08-17T01:04:53;1.90;;;1.33;;
74941;SDS011;63506;49.346;8.798;2023-08-17T01:07:21;1.77;;;1.55;;
74941;SDS011;63506;49.346;8.798;2023-08-17T01:09:50;3.33;;;1.60;;
74941;SDS011;63506;49.346;8.798;2023-08-17T01:12:19;5.10;;;1.92;;
74941;SDS011;63506;49.346;8.798;2023-08-17T01:15:02;1.98;;;1.40;;
74941;SDS011;63506;49.346;8.798;2023-08-17T01:17:37;3.33;;;1.95;;
74941;SDS011;63506;49.346;8.798;2023-08-17T01:20:07;2.45;;;1.60;;
74941;SDS011;63506;49.346;8.798;2023-08-17T01:22:38;4.78;;;2.45;;
74941;SDS011;63506;49.346;8.798;2023-08-17T01:25:11;7.47;;;1.85;;
74941;SDS011;63506;49.346;8.798;2023-08-17T01:27:43;6.57;;;2.05;;
74941;SDS011;63506;49.346;8.798;2023-08-17T01:30:11;2.35;;;1.85;;
74941;SDS011;63506;49.346;8.798;2023-08-17T01:32:44;7.50;;;2.08;;
74941;SDS011;63506;49.346;8.798;2023-08-17T01:35:19;3.42;;;2.20;;
74941;SDS011;63506;49.346;8.798;2023-08-17T01:37:50;3.50;;;1.73;;
74941;SDS011;63506;49.346;8.798;2023-08-17T01:40:22;3.15;;;1.60;;
74941;SDS011;63506;49.346;8.798;2023-08-17T01:42:52;7.28;;;2.50;;
74941;SDS011;63506;49.346;8.798;2023-08-17T01:45:21;13.60;;;2.08;;
74941;SDS011;63506;49.346;8.798;2023-08-17T01:47:51;5.05;;;2.72;;
74941;SDS011;63506;49.346;8.798;2023-08-17T01:50:26;2.88;;;1.98;;
74941;SDS011;63506;49.346;8.798;2023-08-17T01:52:53;8.25;;;2.13;;
74941;SDS011;63506;49.346;8.798;2023-08-17T01:55:22;7.07;;;2.38;;
74941;SDS011;63506;49.346;8.798;2023-08-17T01:57:49;3.80;;;1.95;;
74941;SDS011;63506;49.346;8.798;2023-08-17T02:00:17;5.82;;;1.73;;
74941;SDS011;63506;49.346;8.798;2023-08-17T02:02:44;5.95;;;2.38;;
74941;SDS011;63506;49.346;8.798;2023-08-17T02:05:12;4.13;;;2.40;;
74941;SDS011;63506;49.346;8.798;2023-08-17T02:07:48;4.78;;;2.30;;
74941;SDS011;63506;49.346;8.798;2023-08-17T02:10:15;4.85;;;1.65;;
74941;SDS011;63506;49.346;8.798;2023-08-17T02:12:44;2.45;;;1.45;;
74941;SDS011;63506;49.346;8.798;2023-08-17T02:15:12;6.63;;;1.90;;
74941;SDS011;63506;49.346;8.798;2023-08-17T02:17:42;8.13;;;2.65;;
74941;SDS011;63506;49.346;8.798;2023-08-17T02:20:12;6.75;;;2.67;;
74941;SDS011;63506;49.346;8.798;2023-08-17T02:22:42;4.60;;;2.20;;
74941;SDS011;63506;49.346;8.798;2023-08-17T02:25:09;5.57;;;1.75;;
74941;SDS011;63506;49.346;8.798;2023-08-17T02:27:39;3.25;;;2.00;;
74941;SDS011;63506;49.346;8.798;2023-08-17T02:30:09;4.28;;;2.15;;
74941;SDS011;63506;49.346;8.798;2023-08-17T02:32:39;6.15;;;2.08;;
74941;SDS011;63506;49.346;8.798;2023-08-17T02:35:08;2.47;;;1.95;;
74941;SDS011;63506;49.346;8.798;2023-08-17T02:37:41;4.28;;;2.05;;
74941;SDS011;63506;49.346;8.798;2023-08-17T02:40:11;3.42;;;1.90;;
74941;SDS011;63506;49.346;8.798;2023-08-17T02:42:38;4.45;;;1.73;;
74941;SDS011;63506;49.346;8.798;2023-08-17T02:45:08;2.88;;;1.67;;
74941;SDS011;63506;49.346;8.798;2023-08-17T02:47:36;2.58;;;1.52;;
74941;SDS011;63506;49.346;8.798;2023-08-17T02:50:04;7.68;;;1.52;;
74941;SDS011;63506;49.346;8.798;2023-08-17T02:52:33;3.85;;;2.10;;
74941;SDS011;63506;49.346;8.798;2023-08-17T02:55:00;2.90;;;1.63;;
74941;SDS011;63506;49.346;8.798;2023-08-17T02:57:28;3.10;;;1.90;;
74941;SDS011;63506;49.346;8.798;2023-08-17T02:59:55;2.90;;;1.52;;
74941;SDS011;63506;49.346;8.798;2023-08-17T03:02:24;5.70;;;2.50;;
74941;SDS011;63506;49.346;8.798;2023-08-17T03:04:51;7.15;;;1.88;;
74941;SDS011;63506;49.346;8.798;2023-08-17T03:07:21;3.88;;;1.98;;
74941;SDS011;63506;49.346;8.798;2023-08-17T03:09:52;2.22;;;1.70;;
74941;SDS011;63506;49.346;8.798;2023-08-17T03:12:19;2.17;;;1.90;;
74941;SDS011;63506;49.346;8.798;2023-08-17T03:14:46;4.60;;;2.15;;
74941;SDS011;63506;49.346;8.798;2023-08-17T03:17:14;7.30;;;2.05;;
74941;SDS011;63506;49.346;8.798;2023-08-17T03:19:43;5.30;;;1.55;;
74941;SDS011;63506;49.346;8.798;2023-08-17T03:22:10;7.25;;;2.40;;
74941;SDS011;63506;49.346;8.798;2023-08-17T03:24:38;3.83;;;1.90;;
74941;SDS011;63506;49.346;8.798;2023-08-17T03:27:05;3.65;;;2.33;;
74941;SDS011;63506;49.346;8.798;2023-08-17T03:29:35;6.70;;;1.95;;
74941;SDS011;63506;49.346;8.798;2023-08-17T03:32:03;5.68;;;2.00;;
74941;SDS011;63506;49.346;8.798;2023-08-17T03:34:30;5.55;;;2.05;;
74941;SDS011;63506;49.346;8.798;2023-08-17T03:37:03;5.47;;;2.38;;
74941;SDS011;63506;49.346;8.798;2023-08-17T03:39:31;3.17;;;1.70;;
74941;SDS011;63506;49.346;8.798;2023-08-17T03:41:59;6.18;;;2.17;;
74941;SDS011;63506;49.346;8.798;2023-08-17T03:44:28;2.35;;;2.13;;
74941;SDS011;63506;49.346;8.798;2023-08-17T03:46:56;4.15;;;2.05;;
74941;SDS011;63506;49.346;8.798;2023-08-17T03:49:23;3.92;;;1.80;;
74941;SDS011;63506;49.346;8.798;2023-08-17T03:51:53;4.75;;;1.85;;
74941;SDS011;63506;49.346;8.798;2023-08-17T03:54:22;5.13;;;2.00;;
74941;SDS011;63506;49.346;8.798;2023-08-17T03:56:52;13.88;;;2.30;;
74941;SDS011;63506;49.346;8.798;2023-08-17T03:59:19;3.40;;;2.00;;
74941;SDS011;63506;49.346;8.798;2023-08-17T04:01:47;5.60;;;2.35;;
74941;SDS011;63506;49.346;8.798;2023-08-17T04:04:14;7.35;;;1.73;;
74941;SDS011;63506;49.346;8.798;2023-08-17T04:06:42;2.42;;;1.92;;
74941;SDS011;63506;49.346;8.798;2023-08-17T04:09:12;3.65;;;1.90;;
74941;SDS011;63506;49.346;8.798;2023-08-17T04:11:43;4.65;;;2.63;;
74941;SDS011;63506;49.346;8.798;2023-08-17T04:14:11;7.15;;;2.58;;
74941;SDS011;63506;49.346;8.798;2023-08-17T04:16:39;4.70;;;1.90;;
74941;SDS011;63506;49.346;8.798;2023-08-17T04:19:08;4.07;;;2.22;;
74941;SDS011;63506;49.346;8.798;2023-08-17T04:21:36;6.35;;;2.80;;
74941;SDS011;63506;49.346;8.798;2023-08-17T04:24:04;14.77;;;3.25;;
74941;SDS011;63506;49.346;8.798;2023-08-17T04:26:34;5.95;;;2.03;;
74941;SDS011;63506;49.346;8.798;2023-08-17T04:29:03;9.23;;;2.20;;
74941;SDS011;63506;49.346;8.798;2023-08-17T04:31:32;2.75;;;1.95;;
74941;SDS011;63506;49.346;8.798;2023-08-17T04:34:02;3.95;;;2.38;;
74941;SDS011;63506;49.346;8.798;2023-08-17T04:36:29;8.68;;;2.30;;
74941;SDS011;63506;49.346;8.798;2023-08-17T04:38:59;2.90;;;1.73;;
74941;SDS011;63506;49.346;8.798;2023-08-17T04:41:27;2.58;;;1.67;;
74941;SDS011;63506;49.346;8.798;2023-08-17T04:43:57;2.80;;;1.75;;
74941;SDS011;63506;49.346;8.798;2023-08-17T04:46:26;6.30;;;2.15;;
74941;SDS011;63506;49.346;8.798;2023-08-17T04:48:53;2.53;;;1.92;;
74941;SDS011;63506;49.346;8.798;2023-08-17T04:51:21;4.10;;;2.05;;
74941;SDS011;63506;49.346;8.798;2023-08-17T04:53:49;4.00;;;2.28;;
74941;SDS011;63506;49.346;8.798;2023-08-17T04:56:18;4.78;;;2.42;;
74941;SDS011;63506;49.346;8.798;2023-08-17T04:58:46;2.85;;;1.85;;
74941;SDS011;63506;49.346;8.798;2023-08-17T05:01:14;6.57;;;1.90;;
74941;SDS011;63506;49.346;8.798;2023-08-17T05:03:43;8.48;;;3.10;;
74941;SDS011;63506;49.346;8.798;2023-08-17T05:06:14;2.80;;;1.90;;
74941;SDS011;63506;49.346;8.798;2023-08-17T05:08:41;5.22;;;2.58;;
74941;SDS011;63506;49.346;8.798;2023-08-17T05:11:08;4.53;;;2.00;;
74941;SDS011;63506;49.346;8.798;2023-08-17T05:13:36;5.20;;;2.15;;
74941;SDS011;63506;49.346;8.798;2023-08-17T05:16:04;3.25;;;2.30;;
74941;SDS011;63506;49.346;8.798;2023-08-17T05:18:32;4.30;;;2.20;;
74941;SDS011;63506;49.346;8.798;2023-08-17T05:21:03;6.47;;;2.53;;
74941;SDS011;63506;49.346;8.798;2023-08-17T05:23:32;4.53;;;2.28;;
74941;SDS011;63506;49.346;8.798;2023-08-17T05:26:01;4.00;;;2.60;;
74941;SDS011;63506;49.346;8.798;2023-08-17T05:28:29;2.33;;;2.05;;
74941;SDS011;63506;49.346;8.798;2023-08-17T05:31:02;2.95;;;2.45;;
74941;SDS011;63506;49.346;8.798;2023-08-17T05:33:31;5.40;;;2.15;;
74941;SDS011;63506;49.346;8.798;2023-08-17T05:36:05;4.60;;;1.63;;
74941;SDS011;63506;49.346;8.798;2023-08-17T05:38:35;2.70;;;2.00;;
74941;SDS011;63506;49.346;8.798;2023-08-17T05:41:05;5.53;;;2.38;;
74941;SDS011;63506;49.346;8.798;2023-08-17T05:43:32;6.18;;;1.95;;
74941;SDS011;63506;49.346;8.798;2023-08-17T05:46:00;4.68;;;2.10;;
74941;SDS011;63506;49.346;8.798;2023-08-17T05:48:28;3.85;;;2.45;;
74941;SDS011;63506;49.346;8.798;2023-08-17T05:50:55;5.88;;;2.38;;
74941;SDS011;63506;49.346;8.798;2023-08-17T05:56:37;3.90;;;2.13;;
74941;SDS011;63506;49.346;8.798;2023-08-17T05:59:13;3.42;;;2.22;;
74941;SDS011;63506;49.346;8.798;2023-08-17T06:01:40;4.10;;;2.20;;
74941;SDS011;63506;49.346;8.798;2023-08-17T06:04:10;3.65;;;2.40;;
74941;SDS011;63506;49.346;8.798;2023-08-17T06:06:38;2.40;;;1.92;;
74941;SDS011;63506;49.346;8.798;2023-08-17T06:09:07;3.75;;;2.33;;
74941;SDS011;63506;49.346;8.798;2023-08-17T06:11:35;7.80;;;2.85;;
74941;SDS011;63506;49.346;8.798;2023-08-17T06:14:08;2.92;;;2.33;;
74941;SDS011;63506;49.346;8.798;2023-08-17T06:16:36;4.05;;;2.47;;
74941;SDS011;63506;49.346;8.798;2023-08-17T06:19:03;3.60;;;2.33;;
74941;SDS011;63506;49.346;8.798;2023-08-17T06:21:33;2.63;;;1.83;;
74941;SDS011;63506;49.346;8.798;2023-08-17T06:24:03;3.40;;;2.25;;
74941;SDS011;63506;49.346;8.798;2023-08-17T06:26:31;2.45;;;2.05;;
74941;SDS011;63506;49.346;8.798;2023-08-17T06:28:58;2.25;;;1.70;;
74941;SDS011;63506;49.346;8.798;2023-08-17T06:31:27;4.55;;;2.17;;
74941;SDS011;63506;49.346;8.798;2023-08-17T06:33:54;3.90;;;1.90;;
74941;SDS011;63506;49.346;8.798;2023-08-17T06:36:24;3.15;;;1.38;;
74941;SDS011;63506;49.346;8.798;2023-08-17T06:38:52;4.95;;;1.77;;
74941;SDS011;63506;49.346;8.798;2023-08-17T06:41:21;3.35;;;1.65;;
74941;SDS011;63506;49.346;8.798;2023-08-17T06:43:50;1.90;;;1.50;;
74941;SDS011;63506;49.346;8.798;2023-08-17T06:46:18;2.33;;;2.03;;
74941;SDS011;63506;49.346;8.798;2023-08-17T06:48:49;3.35;;;1.50;;
74941;SDS011;63506;49.346;8.798;2023-08-17T06:51:16;8.07;;;2.28;;
74941;SDS011;63506;49.346;8.798;2023-08-17T06:53:43;2.53;;;1.48;;
74941;SDS011;63506;49.346;8.798;2023-08-17T06:56:11;2.30;;;1.35;;
74941;SDS011;63506;49.346;8.798;2023-08-17T06:58:38;1.90;;;1.70;;
74941;SDS011;63506;49.346;8.798;2023-08-17T07:01:08;2.53;;;1.60;;
74941;SDS011;63506;49.346;8.798;2023-08-17T07:03:35;5.95;;;1.60;;
74941;SDS011;63506;49.346;8.798;2023-08-17T07:06:05;3.00;;;1.60;;
74941;SDS011;63506;49.346;8.798;2023-08-17T07:08:32;2.38;;;1.50;;
74941;SDS011;63506;49.346;8.798;2023-08-17T07:11:00;3.90;;;2.63;;
74941;SDS011;63506;49.346;8.798;2023-08-17T07:13:29;2.10;;;1.27;;
74941;SDS011;63506;49.346;8.798;2023-08-17T07:15:56;5.43;;;1.88;;
74941;SDS011;63506;49.346;8.798;2023-08-17T07:18:24;5.57;;;2.03;;
74941;SDS011;63506;49.346;8.798;2023-08-17T07:20:53;2.25;;;1.35;;
74941;SDS011;63506;49.346;8.798;2023-08-17T07:23:22;4.15;;;1.83;;
74941;SDS011;63506;49.346;8.798;2023-08-17T07:25:52;3.33;;;2.30;;
74941;SDS011;63506;49.346;8.798;2023-08-17T07:28:19;3.30;;;1.30;;
74941;SDS011;63506;49.346;8.798;2023-08-17T07:30:49;2.78;;;1.50;;
74941;SDS011;63506;49.346;8.798;2023-08-17T07:33:17;3.25;;;2.03;;
74941;SDS011;63506;49.346;8.798;2023-08-17T07:35:44;2.78;;;1.73;;
74941;SDS011;63506;49.346;8.798;2023-08-17T07:38:11;1.73;;;1.38;;
74941;SDS011;63506;49.346;8.798;2023-08-17T07:40:40;2.03;;;1.60;;
74941;SDS011;63506;49.346;8.798;2023-08-17T07:43:09;5.03;;;1.60;;
74941;SDS011;63506;49.346;8.798;2023-08-17T07:45:36;2.38;;;1.83;;
74941;SDS011;63506;49.346;8.798;2023-08-17T07:48:04;5.18;;;2.38;;
74941;SDS011;63506;49.346;8.798;2023-08-17T07:50:34;2.28;;;1.73;;
74941;SDS011;63506;49.346;8.798;2023-08-17T07:53:03;9.48;;;2.17;;
74941;SDS011;63506;49.346;8.798;2023-08-17T07:55:31;5.53;;;1.75;;
74941;SDS011;63506;49.346;8.798;2023-08-17T07:58:02;2.47;;;1.60;;
74941;SDS011;63506;49.346;8.798;2023-08-17T08:00:31;2.67;;;1.50;;
74941;SDS011;63506;49.346;8.798;2023-08-17T08:02:59;4.15;;;1.88;;
74941;SDS011;63506;49.346;8.798;2023-08-17T08:05:28;4.25;;;2.40;;
74941;SDS011;63506;49.346;8.798;2023-08-17T08:07:56;2.55;;;2.35;;
74941;SDS011;63506;49.346;8.798;2023-08-17T08:10:28;2.33;;;1.85;;
74941;SDS011;63506;49.346;8.798;2023-08-17T08:12:58;2.22;;;2.03;;
74941;SDS011;63506;49.346;8.798;2023-08-17T08:15:26;2.25;;;1.63;;
74941;SDS011;63506;49.346;8.798;2023-08-17T08:17:54;2.42;;;1.98;;
74941;SDS011;63506;49.346;8.798;2023-08-17T08:20:21;3.08;;;2.50;;
74941;SDS011;63506;49.346;8.798;2023-08-17T08:22:49;4.40;;;2.92;;
74941;SDS011;63506;49.346;8.798;2023-08-17T08:25:18;6.18;;;2.83;;
74941;SDS011;63506;49.346;8.798;2023-08-17T08:27:45;2.58;;;1.60;;
74941;SDS011;63506;49.346;8.798;2023-08-17T08:30:13;3.15;;;1.77;;
74941;SDS011;63506;49.346;8.798;2023-08-17T08:32:42;2.63;;;1.98;;
74941;SDS011;63506;49.346;8.798;2023-08-17T08:35:10;3.38;;;1.85;;
74941;SDS011;63506;49.346;8.798;2023-08-17T08:37:37;1.95;;;1.75;;
74941;SDS011;63506;49.346;8.798;2023-08-17T08:40:05;2.38;;;1.85;;
74941;SDS011;63506;49.346;8.798;2023-08-17T08:42:40;2.80;;;1.73;;
74941;SDS011;63506;49.346;8.798;2023-08-17T08:45:08;2.33;;;2.03;;
74941;SDS011;63506;49.346;8.798;2023-08-17T08:47:36;2.97;;;1.85;;
74941;SDS011;63506;49.346;8.798;2023-08-17T08:50:08;8.93;;;3.08;;
74941;SDS011;63506;49.346;8.798;2023-08-17T08:52:40;2.22;;;2.05;;
74941;SDS011;63506;49.346;8.798;2023-08-17T08:55:10;2.72;;;2.22;;
74941;SDS011;63506;49.346;8.798;2023-08-17T08:57:39;2.80;;;2.17;;
74941;SDS011;63506;49.346;8.798;2023-08-17T09:00:07;3.35;;;2.75;;
74941;SDS011;63506;49.346;8.798;2023-08-17T09:02:35;6.90;;;2.50;;
74941;SDS011;63506;49.346;8.798;2023-08-17T09:05:05;2.45;;;2.00;;
74941;SDS011;63506;49.346;8.798;2023-08-17T09:07:35;3.70;;;2.40;;
74941;SDS011;63506;49.346;8.798;2023-08-17T09:10:05;2.00;;;1.80;;
74941;SDS011;63506;49.346;8.798;2023-08-17T09:12:32;2.15;;;1.95;;
74941;SDS011;63506;49.346;8.798;2023-08-17T09:15:00;3.75;;;2.45;;
74941;SDS011;63506;49.346;8.798;2023-08-17T09:17:31;3.83;;;2.78;;
74941;SDS011;63506;49.346;8.798;2023-08-17T09:20:02;3.78;;;2.55;;
74941;SDS011;63506;49.346;8.798;2023-08-17T09:22:37;3.80;;;2.90;;
74941;SDS011;63506;49.346;8.798;2023-08-17T09:25:06;5.97;;;3.15;;
74941;SDS011;63506;49.346;8.798;2023-08-17T09:27:35;5.28;;;3.33;;
74941;SDS011;63506;49.346;8.798;2023-08-17T09:30:05;5.40;;;2.80;;
74941;SDS011;63506;49.346;8.798;2023-08-17T09:32:39;3.78;;;3.40;;
74941;SDS011;63506;49.346;8.798;2023-08-17T09:35:08;4.80;;;3.47;;
74941;SDS011;63506;49.346;8.798;2023-08-17T09:37:37;3.22;;;2.92;;
74941;SDS011;63506;49.346;8.798;2023-08-17T09:40:05;9.23;;;3.58;;
74941;SDS011;63506;49.346;8.798;2023-08-17T09:42:37;4.22;;;3.55;;
74941;SDS011;63506;49.346;8.798;2023-08-17T09:45:10;3.88;;;3.42;;
74941;SDS011;63506;49.346;8.798;2023-08-17T09:47:37;4.85;;;3.67;;
74941;SDS011;63506;49.346;8.798;2023-08-17T09:50:08;5.50;;;4.40;;
74941;SDS011;63506;49.346;8.798;2023-08-17T09:52:38;5.38;;;3.75;;
74941;SDS011;63506;49.346;8.798;2023-08-17T09:55:06;4.97;;;3.95;;
74941;SDS011;63506;49.346;8.798;2023-08-17T09:57:37;8.27;;;4.75;;
74941;SDS011;63506;49.346;8.798;2023-08-17T10:00:10;5.43;;;4.38;;
74941;SDS011;63506;49.346;8.798;2023-08-17T10:02:40;4.15;;;3.75;;
74941;SDS011;63506;49.346;8.798;2023-08-17T10:05:09;5.60;;;5.03;;
74941;SDS011;63506;49.346;8.798;2023-08-17T10:07:40;7.22;;;4.75;;
74941;SDS011;63506;49.346;8.798;2023-08-17T10:10:10;5.55;;;4.40;;
74941;SDS011;63506;49.346;8.798;2023-08-17T10:12:44;4.97;;;3.88;;
74941;SDS011;63506;49.346;8.798;2023-08-17T10:18:42;5.20;;;4.70;;
74941;SDS011;63506;49.346;8.798;2023-08-17T10:21:17;4.18;;;3.72;;
74941;SDS011;63506;49.346;8.798;2023-08-17T10:26:19;4.75;;;4.22;;
74941;SDS011;63506;49.346;8.798;2023-08-17T10:31:34;4.88;;;4.38;;
74941;SDS011;63506;49.346;8.798;2023-08-17T10:34:04;4.88;;;4.38;;
74941;SDS011;63506;49.346;8.798;2023-08-17T10:36:53;4.03;;;3.70;;
74941;SDS011;63506;49.346;8.798;2023-08-17T10:39:53;5.55;;;4.05;;
74941;SDS011;63506;49.346;8.798;2023-08-17T10:42:41;8.73;;;4.85;;
74941;SDS011;63506;49.346;8.798;2023-08-17T10:49:05;4.75;;;4.03;;
74941;SDS011;63506;49.346;8.798;2023-08-17T10:51:34;7.22;;;3.85;;
74941;SDS011;63506;49.346;8.798;2023-08-17T10:54:05;4.68;;;4.03;;
74941;SDS011;63506;49.346;8.798;2023-08-17T10:57:30;4.07;;;3.67;;
74941;SDS011;63506;49.346;8.798;2023-08-17T11:00:14;5.03;;;4.57;;
74941;SDS011;63506;49.346;8.798;2023-08-17T11:02:43;4.85;;;3.85;;
74941;SDS011;63506;49.346;8.798;2023-08-17T11:05:13;4.70;;;4.05;;
74941;SDS011;63506;49.346;8.798;2023-08-17T11:07:45;4.85;;;4.03;;
74941;SDS011;63506;49.346;8.798;2023-08-17T11:10:47;4.50;;;4.10;;
74941;SDS011;63506;49.346;8.798;2023-08-17T11:13:19;4.25;;;3.85;;
74941;SDS011;63506;49.346;8.798;2023-08-17T11:15:50;4.80;;;4.28;;
74941;SDS011;63506;49.346;8.798;2023-08-17T11:21:54;4.78;;;4.38;;
74941;SDS011;63506;49.346;8.798;2023-08-17T11:24:22;3.63;;;3.33;;
74941;SDS011;63506;49.346;8.798;2023-08-17T11:26:50;5.25;;;4.10;;
74941;SDS011;63506;49.346;8.798;2023-08-17T11:29:19;3.92;;;3.63;;
74941;SDS011;63506;49.346;8.798;2023-08-17T11:31:46;8.30;;;4.07;;
74941;SDS011;63506;49.346;8.798;2023-08-17T11:34:17;5.45;;;4.43;;
74941;SDS011;63506;49.346;8.798;2023-08-17T11:37:25;4.07;;;3.25;;
74941;SDS011;63506;49.346;8.798;2023-08-17T11:39:53;4.38;;;3.42;;
74941;SDS011;63506;49.346;8.798;2023-08-17T11:42:20;3.88;;;3.47;;
74941;SDS011;63506;49.346;8.798;2023-08-17T11:44:50;4.00;;;3.60;;
74941;SDS011;63506;49.346;8.798;2023-08-17T11:47:17;4.75;;;3.83;;
74941;SDS011;63506;49.346;8.798;2023-08-17T11:49:47;8.90;;;3.85;;
74941;SDS011;63506;49.346;8.798;2023-08-17T11:52:20;3.85;;;3.45;;
74941;SDS011;63506;49.346;8.798;2023-08-17T11:54:47;4.20;;;3.80;;
74941;SDS011;63506;49.346;8.798;2023-08-17T11:57:14;3.90;;;3.60;;
74941;SDS011;63506;49.346;8.798;2023-08-17T11:59:42;4.07;;;3.75;;
74941;SDS011;63506;49.346;8.798;2023-08-17T12:02:11;4.35;;;3.85;;
74941;SDS011;63506;49.346;8.798;2023-08-17T12:04:39;8.75;;;3.92;;
74941;SDS011;63506;49.346;8.798;2023-08-17T12:07:06;3.65;;;3.35;;
74941;SDS011;63506;49.346;8.798;2023-08-17T12:09:37;5.32;;;4.43;;
74941;SDS011;63506;49.346;8.798;2023-08-17T12:12:07;4.18;;;3.88;;
74941;SDS011;63506;49.346;8.798;2023-08-17T12:14:39;6.13;;;3.75;;
74941;SDS011;63506;49.346;8.798;2023-08-17T12:17:14;7.35;;;4.63;;
74941;SDS011;63506;49.346;8.798;2023-08-17T12:20:15;4.60;;;4.07;;
74941;SDS011;63506;49.346;8.798;2023-08-17T12:22:43;4.40;;;4.00;;
74941;SDS011;63506;49.346;8.798;2023-08-17T12:25:11;5.05;;;4.55;;
74941;SDS011;63506;49.346;8.798;2023-08-17T12:27:41;10.10;;;4.57;;
74941;SDS011;63506;49.346;8.798;2023-08-17T12:30:14;5.28;;;4.82;;
74941;SDS011;63506;49.346;8.798;2023-08-17T12:32:58;4.55;;;4.15;;
74941;SDS011;63506;49.346;8.798;2023-08-17T12:35:31;5.90;;;5.35;;
74941;SDS011;63506;49.346;8.798;2023-08-17T12:38:01;4.32;;;3.92;;
74941;SDS011;63506;49.346;8.798;2023-08-17T12:40:28;10.15;;;6.03;;
74941;SDS011;63506;49.346;8.798;2023-08-17T12:42:56;4.40;;;4.00;;
74941;SDS011;63506;49.346;8.798;2023-08-17T12:45:23;5.85;;;4.38;;
74941;SDS011;63506;49.346;8.798;2023-08-17T12:47:51;5.32;;;4.57;;
74941;SDS011;63506;49.346;8.798;2023-08-17T12:50:22;5.28;;;4.78;;
74941;SDS011;63506;49.346;8.798;2023-08-17T12:52:50;6.47;;;4.50;;
74941;SDS011;63506;49.346;8.798;2023-08-17T12:55:17;4.80;;;4.35;;
74941;SDS011;63506;49.346;8.798;2023-08-17T12:57:45;5.43;;;4.95;;
74941;SDS011;63506;49.346;8.798;2023-08-17T13:00:12;5.22;;;4.32;;
74941;SDS011;63506;49.346;8.798;2023-08-17T13:02:46;5.25;;;4.55;;
74941;SDS011;63506;49.346;8.798;2023-08-17T13:05:17;5.03;;;4.53;;
74941;SDS011;63506;49.346;8.798;2023-08-17T13:07:46;4.68;;;4.03;;
74941;SDS011;63506;49.346;8.798;2023-08-17T13:10:13;5.38;;;4.88;;
74941;SDS011;63506;49.346;8.798;2023-08-17T13:12:40;6.07;;;3.92;;
74941;SDS011;63506;49.346;8.798;2023-08-17T13:15:08;4.43;;;4.03;;
74941;SDS011;63506;49.346;8.798;2023-08-17T13:17:35;7.65;;;4.25;;
74941;SDS011;63506;49.346;8.798;2023-08-17T13:20:06;4.75;;;4.07;;
74941;SDS011;63506;49.346;8.798;2023-08-17T13:22:37;4.68;;;4.28;;
74941;SDS011;63506;49.346;8.798;2023-08-17T13:25:06;6.65;;;4.38;;
74941;SDS011;63506;49.346;8.798;2023-08-17T13:27:34;5.20;;;4.55;;
74941;SDS011;63506;49.346;8.798;2023-08-17T13:30:02;4.90;;;4.47;;
74941;SDS011;63506;49.346;8.798;2023-08-17T13:32:32;7.10;;;4.47;;
74941;SDS011;63506;49.346;8.798;2023-08-17T13:35:03;4.38;;;3.97;;
74941;SDS011;63506;49.346;8.798;2023-08-17T13:37:31;5.35;;;4.07;;
74941;SDS011;63506;49.346;8.798;2023-08-17T13:39:58;4.00;;;3.58;;
74941;SDS011;63506;49.346;8.798;2023-08-17T13:42:30;7.53;;;4.15;;
74941;SDS011;63506;49.346;8.798;2023-08-17T13:44:57;4.05;;;3.75;;
74941;SDS011;63506;49.346;8.798;2023-08-17T13:47:28;4.40;;;3.20;;
74941;SDS011;63506;49.346;8.798;2023-08-17T13:49:56;5.28;;;4.47;;
74941;SDS011;63506;49.346;8.798;2023-08-17T13:52:26;4.70;;;4.10;;
74941;SDS011;63506;49.346;8.798;2023-08-17T13:54:54;4.10;;;3.72;;
74941;SDS011;63506;49.346;8.798;2023-08-17T13:57:21;6.65;;;4.28;;
74941;SDS011;63506;49.346;8.798;2023-08-17T13:59:53;4.63;;;4.22;;
74941;SDS011;63506;49.346;8.798;2023-08-17T14:02:22;3.78;;;3.45;;
74941;SDS011;63506;49.346;8.798;2023-08-17T14:04:52;4.40;;;4.07;;
74941;SDS011;63506;49.346;8.798;2023-08-17T14:07:19;6.03;;;4.30;;
74941;SDS011;63506;49.346;8.798;2023-08-17T14:09:46;4.30;;;3.90;;
74941;SDS011;63506;49.346;8.798;2023-08-17T14:12:17;4.03;;;3.63;;
74941;SDS011;63506;49.346;8.798;2023-08-17T14:14:44;7.05;;;4.35;;
74941;SDS011;63506;49.346;8.798;2023-08-17T14:17:15;4.80;;;4.40;;
74941;SDS011;63506;49.346;8.798;2023-08-17T14:19:43;3.83;;;3.53;;
74941;SDS011;63506;49.346;8.798;2023-08-17T14:22:10;5.85;;;4.90;;
74941;SDS011;63506;49.346;8.798;2023-08-17T14:24:38;4.47;;;4.07;;
74941;SDS011;63506;49.346;8.798;2023-08-17T14:29:39;4.65;;;4.30;;
74941;SDS011;63506;49.346;8.798;2023-08-17T14:32:07;5.35;;;4.82;;
74941;SDS011;63506;49.346;8.798;2023-08-17T14:34:36;5.40;;;4.18;;
74941;SDS011;63506;49.346;8.798;2023-08-17T14:37:05;3.78;;;3.47;;
74941;SDS011;63506;49.346;8.798;2023-08-17T14:39:33;5.78;;;3.58;;
74941;SDS011;63506;49.346;8.798;2023-08-17T14:42:00;6.30;;;3.88;;
74941;SDS011;63506;49.346;8.798;2023-08-17T14:44:30;3.63;;;3.33;;
74941;SDS011;63506;49.346;8.798;2023-08-17T14:46:57;8.15;;;4.57;;
74941;SDS011;63506;49.346;8.798;2023-08-17T14:49:25;4.38;;;3.83;;
74941;SDS011;63506;49.346;8.798;2023-08-17T14:51:54;4.40;;;4.07;;
74941;SDS011;63506;49.346;8.798;2023-08-17T14:54:25;5.70;;;3.42;;
74941;SDS011;63506;49.346;8.798;2023-08-17T14:56:52;8.07;;;4.18;;
74941;SDS011;63506;49.346;8.798;2023-08-17T14:59:20;4.55;;;4.15;;
74941;SDS011;63506;49.346;8.798;2023-08-17T15:01:49;5.35;;;3.45;;
74941;SDS011;63506;49.346;8.798;2023-08-17T15:04:18;4.60;;;4.20;;
74941;SDS011;63506;49.346;8.798;2023-08-17T15:06:45;6.90;;;4.00;;
74941;SDS011;63506;49.346;8.798;2023-08-17T15:09:14;4.25;;;3.85;;
74941;SDS011;63506;49.346;8.798;2023-08-17T15:11:46;4.45;;;4.05;;
74941;SDS011;63506;49.346;8.798;2023-08-17T15:14:16;4.68;;;4.20;;
74941;SDS011;63506;49.346;8.798;2023-08-17T15:16:44;5.63;;;4.35;;
74941;SDS011;63506;49.346;8.798;2023-08-17T15:19:11;3.72;;;3.38;;
74941;SDS011;63506;49.346;8.798;2023-08-17T15:21:41;3.92;;;3.55;;
74941;SDS011;63506;49.346;8.798;2023-08-17T15:24:11;5.22;;;4.13;;